sensor_id;sensor_type;location;lat;lon;timestamp;pressure;altitude;pressure_sealevel;temperature;humidity
70338;BME280;57757;53.198;19.646;2023-12-20T00:01:42;99216.30;;;5.10;88.75
70338;BME280;57757;53.198;19.646;2023-12-20T00:04:09;99211.31;;;5.10;88.72
70338;BME280;57757;53.198;19.646;2023-12-20T00:06:35;99215.77;;;5.11;88.86
70338;BME280;57757;53.198;19.646;2023-12-20T00:09:01;99208.55;;;5.11;88.73
70338;BME280;57757;53.198;19.646;2023-12-20T00:11:27;99205.13;;;5.09;88.76
70338;BME280;57757;53.198;19.646;2023-12-20T00:13:54;99201.36;;;5.08;88.70
70338;BME280;57757;53.198;19.646;2023-12-20T00:16:20;99196.54;;;5.08;88.77
70338;BME280;57757;53.198;19.646;2023-12-20T00:18:46;99196.02;;;5.08;88.77
70338;BME280;57757;53.198;19.646;2023-12-20T00:21:13;99196.71;;;5.09;88.84
70338;BME280;57757;53.198;19.646;2023-12-20T00:23:39;99198.06;;;5.09;88.85
70338;BME280;57757;53.198;19.646;2023-12-20T00:26:05;99192.03;;;5.09;88.93
70338;BME280;57757;53.198;19.646;2023-12-20T00:28:31;99195.79;;;5.11;88.92
70338;BME280;57757;53.198;19.646;2023-12-20T00:30:57;99197.16;;;5.12;88.82
70338;BME280;57757;53.198;19.646;2023-12-20T00:33:23;99198.02;;;5.12;88.85
70338;BME280;57757;53.198;19.646;2023-12-20T00:35:50;99195.08;;;5.13;88.80
70338;BME280;57757;53.198;19.646;2023-12-20T00:38:16;99192.48;;;5.13;88.85
70338;BME280;57757;53.198;19.646;2023-12-20T00:40:42;99194.02;;;5.14;88.87
70338;BME280;57757;53.198;19.646;2023-12-20T00:43:08;99201.05;;;5.15;88.88
70338;BME280;57757;53.198;19.646;2023-12-20T00:45:34;99199.15;;;5.17;88.92
70338;BME280;57757;53.198;19.646;2023-12-20T00:48:00;99192.60;;;5.17;88.82
70338;BME280;57757;53.198;19.646;2023-12-20T00:50:27;99191.91;;;5.17;88.76
70338;BME280;57757;53.198;19.646;2023-12-20T00:52:56;99187.59;;;5.17;88.89
70338;BME280;57757;53.198;19.646;2023-12-20T00:55:22;99185.86;;;5.17;88.85
70338;BME280;57757;53.198;19.646;2023-12-20T00:57:48;99181.20;;;5.17;88.85
70338;BME280;57757;53.198;19.646;2023-12-20T01:00:15;99179.98;;;5.18;88.81
70338;BME280;57757;53.198;19.646;2023-12-20T01:02:41;99177.90;;;5.19;88.91
70338;BME280;57757;53.198;19.646;2023-12-20T01:05:07;99179.61;;;5.20;88.88
70338;BME280;57757;53.198;19.646;2023-12-20T01:07:35;99185.64;;;5.20;88.81
70338;BME280;57757;53.198;19.646;2023-12-20T01:10:01;99181.98;;;5.22;88.88
70338;BME280;57757;53.198;19.646;2023-12-20T01:12:28;99184.90;;;5.22;88.82
70338;BME280;57757;53.198;19.646;2023-12-20T01:14:54;99185.24;;;5.23;88.89
70338;BME280;57757;53.198;19.646;2023-12-20T01:17:20;99181.96;;;5.23;88.80
70338;BME280;57757;53.198;19.646;2023-12-20T01:19:46;99177.48;;;5.23;88.88
70338;BME280;57757;53.198;19.646;2023-12-20T01:22:13;99174.20;;;5.24;88.92
70338;BME280;57757;53.198;19.646;2023-12-20T01:24:39;99167.98;;;5.24;88.86
70338;BME280;57757;53.198;19.646;2023-12-20T01:27:05;99164.69;;;5.25;88.85
70338;BME280;57757;53.198;19.646;2023-12-20T01:29:31;99159.84;;;5.25;88.91
70338;BME280;57757;53.198;19.646;2023-12-20T01:31:57;99156.91;;;5.26;88.94
70338;BME280;57757;53.198;19.646;2023-12-20T01:34:23;99156.90;;;5.26;88.89
70338;BME280;57757;53.198;19.646;2023-12-20T01:36:50;99155.52;;;5.27;88.91
70338;BME280;57757;53.198;19.646;2023-12-20T01:39:17;99154.66;;;5.27;88.85
70338;BME280;57757;53.198;19.646;2023-12-20T01:41:54;99148.62;;;5.27;88.81
70338;BME280;57757;53.198;19.646;2023-12-20T01:44:20;99149.99;;;5.28;88.82
70338;BME280;57757;53.198;19.646;2023-12-20T01:46:46;99146.19;;;5.28;88.86
70338;BME280;57757;53.198;19.646;2023-12-20T01:49:13;99145.66;;;5.29;88.82
70338;BME280;57757;53.198;19.646;2023-12-20T01:51:40;99145.48;;;5.29;88.85
70338;BME280;57757;53.198;19.646;2023-12-20T01:54:06;99144.42;;;5.30;88.86
70338;BME280;57757;53.198;19.646;2023-12-20T01:56:33;99133.92;;;5.29;88.80
70338;BME280;57757;53.198;19.646;2023-12-20T01:59:00;99135.12;;;5.30;88.78
70338;BME280;57757;53.198;19.646;2023-12-20T02:01:27;99133.09;;;5.28;88.83
70338;BME280;57757;53.198;19.646;2023-12-20T02:03:55;99134.79;;;5.29;88.80
70338;BME280;57757;53.198;19.646;2023-12-20T02:06:23;99131.70;;;5.29;88.87
70338;BME280;57757;53.198;19.646;2023-12-20T02:08:50;99128.27;;;5.28;88.85
70338;BME280;57757;53.198;19.646;2023-12-20T02:11:16;99127.55;;;5.29;88.94
70338;BME280;57757;53.198;19.646;2023-12-20T02:13:43;99130.50;;;5.28;88.78
70338;BME280;57757;53.198;19.646;2023-12-20T02:16:09;99127.58;;;5.28;88.86
70338;BME280;57757;53.198;19.646;2023-12-20T02:18:35;99127.77;;;5.27;88.83
70338;BME280;57757;53.198;19.646;2023-12-20T02:21:04;99121.73;;;5.26;88.92
70338;BME280;57757;53.198;19.646;2023-12-20T02:23:30;99121.92;;;5.26;88.94
70338;BME280;57757;53.198;19.646;2023-12-20T02:25:57;99120.54;;;5.26;88.94
70338;BME280;57757;53.198;19.646;2023-12-20T02:28:23;99120.89;;;5.26;88.89
70338;BME280;57757;53.198;19.646;2023-12-20T02:30:50;99123.30;;;5.26;88.98
70338;BME280;57757;53.198;19.646;2023-12-20T02:33:17;99126.90;;;5.27;89.05
70338;BME280;57757;53.198;19.646;2023-12-20T02:35:43;99120.69;;;5.28;89.06
70338;BME280;57757;53.198;19.646;2023-12-20T02:38:09;99118.27;;;5.28;89.00
70338;BME280;57757;53.198;19.646;2023-12-20T02:40:35;99112.91;;;5.29;89.05
70338;BME280;57757;53.198;19.646;2023-12-20T02:43:01;99116.33;;;5.30;88.95
70338;BME280;57757;53.198;19.646;2023-12-20T02:45:28;99112.18;;;5.30;88.95
70338;BME280;57757;53.198;19.646;2023-12-20T02:47:54;99108.73;;;5.30;89.05
70338;BME280;57757;53.198;19.646;2023-12-20T02:50:20;99107.38;;;5.30;88.94
70338;BME280;57757;53.198;19.646;2023-12-20T02:52:46;99101.49;;;5.30;88.94
70338;BME280;57757;53.198;19.646;2023-12-20T02:55:13;99100.98;;;5.32;88.97
70338;BME280;57757;53.198;19.646;2023-12-20T02:57:39;99100.28;;;5.31;89.05
70338;BME280;57757;53.198;19.646;2023-12-20T03:00:11;99099.94;;;5.32;88.89
70338;BME280;57757;53.198;19.646;2023-12-20T03:02:37;99096.66;;;5.31;89.06
70338;BME280;57757;53.198;19.646;2023-12-20T03:05:04;99098.57;;;5.30;88.95
70338;BME280;57757;53.198;19.646;2023-12-20T03:07:30;99091.17;;;5.29;88.98
70338;BME280;57757;53.198;19.646;2023-12-20T03:09:56;99090.12;;;5.30;88.96
70338;BME280;57757;53.198;19.646;2023-12-20T03:12:43;99088.23;;;5.30;89.07
70338;BME280;57757;53.198;19.646;2023-12-20T03:15:10;99085.29;;;5.31;89.07
70338;BME280;57757;53.198;19.646;2023-12-20T03:17:36;99089.59;;;5.31;89.11
70338;BME280;57757;53.198;19.646;2023-12-20T03:20:03;99088.89;;;5.32;89.12
70338;BME280;57757;53.198;19.646;2023-12-20T03:22:29;99094.22;;;5.34;89.11
70338;BME280;57757;53.198;19.646;2023-12-20T03:24:55;99092.13;;;5.34;89.07
70338;BME280;57757;53.198;19.646;2023-12-20T03:27:21;99086.43;;;5.34;89.19
70338;BME280;57757;53.198;19.646;2023-12-20T03:29:48;99082.98;;;5.35;89.15
70338;BME280;57757;53.198;19.646;2023-12-20T03:32:14;99077.10;;;5.36;89.17
70338;BME280;57757;53.198;19.646;2023-12-20T03:34:40;99079.69;;;5.35;88.96
70338;BME280;57757;53.198;19.646;2023-12-20T03:37:07;99078.31;;;5.35;89.09
70338;BME280;57757;53.198;19.646;2023-12-20T03:39:33;99081.92;;;5.36;89.08
70338;BME280;57757;53.198;19.646;2023-12-20T03:41:59;99081.05;;;5.36;89.21
70338;BME280;57757;53.198;19.646;2023-12-20T03:44:25;99081.02;;;5.37;89.22
70338;BME280;57757;53.198;19.646;2023-12-20T03:46:51;99082.90;;;5.39;89.22
70338;BME280;57757;53.198;19.646;2023-12-20T03:49:17;99082.54;;;5.40;89.20
70338;BME280;57757;53.198;19.646;2023-12-20T03:51:43;99083.90;;;5.40;89.18
70338;BME280;57757;53.198;19.646;2023-12-20T03:54:10;99087.33;;;5.41;89.18
70338;BME280;57757;53.198;19.646;2023-12-20T03:56:36;99086.46;;;5.41;89.13
70338;BME280;57757;53.198;19.646;2023-12-20T03:59:02;99084.22;;;5.41;89.13
70338;BME280;57757;53.198;19.646;2023-12-20T04:01:28;99081.45;;;5.42;89.16
70338;BME280;57757;53.198;19.646;2023-12-20T04:03:54;99080.24;;;5.42;89.22
70338;BME280;57757;53.198;19.646;2023-12-20T04:06:20;99082.82;;;5.42;89.09
70338;BME280;57757;53.198;19.646;2023-12-20T04:08:46;99080.21;;;5.44;89.17
70338;BME280;57757;53.198;19.646;2023-12-20T04:11:13;99083.12;;;5.45;89.15
70338;BME280;57757;53.198;19.646;2023-12-20T04:13:39;99083.44;;;5.45;89.26
70338;BME280;57757;53.198;19.646;2023-12-20T04:16:05;99084.29;;;5.47;89.23
70338;BME280;57757;53.198;19.646;2023-12-20T04:18:31;99071.01;;;5.47;89.26
70338;BME280;57757;53.198;19.646;2023-12-20T04:20:58;99071.35;;;5.47;89.21
70338;BME280;57757;53.198;19.646;2023-12-20T04:23:24;99069.44;;;5.47;89.23
70338;BME280;57757;53.198;19.646;2023-12-20T04:25:50;99066.82;;;5.49;89.26
70338;BME280;57757;53.198;19.646;2023-12-20T04:28:16;99072.31;;;5.49;89.19
70338;BME280;57757;53.198;19.646;2023-12-20T04:30:42;99073.52;;;5.50;89.26
70338;BME280;57757;53.198;19.646;2023-12-20T04:33:09;99071.79;;;5.51;89.07
70338;BME280;57757;53.198;19.646;2023-12-20T04:35:35;99067.10;;;5.52;89.15
70338;BME280;57757;53.198;19.646;2023-12-20T04:38:01;99065.00;;;5.53;89.28
70338;BME280;57757;53.198;19.646;2023-12-20T04:40:27;99062.40;;;5.55;89.20
70338;BME280;57757;53.198;19.646;2023-12-20T04:42:54;99059.29;;;5.55;89.20
70338;BME280;57757;53.198;19.646;2023-12-20T04:45:20;99062.04;;;5.55;89.06
70338;BME280;57757;53.198;19.646;2023-12-20T04:47:46;99062.71;;;5.55;89.14
70338;BME280;57757;53.198;19.646;2023-12-20T04:50:13;99065.97;;;5.56;89.15
70338;BME280;57757;53.198;19.646;2023-12-20T04:52:41;99069.21;;;5.58;89.15
70338;BME280;57757;53.198;19.646;2023-12-20T04:55:07;99068.69;;;5.59;89.17
70338;BME280;57757;53.198;19.646;2023-12-20T04:57:35;99066.06;;;5.60;89.18
70338;BME280;57757;53.198;19.646;2023-12-20T05:00:01;99064.15;;;5.61;89.17
70338;BME280;57757;53.198;19.646;2023-12-20T05:02:28;99067.76;;;5.62;89.13
70338;BME280;57757;53.198;19.646;2023-12-20T05:04:54;99063.09;;;5.63;89.11
70338;BME280;57757;53.198;19.646;2023-12-20T05:07:22;99062.36;;;5.64;89.16
70338;BME280;57757;53.198;19.646;2023-12-20T05:09:48;99061.48;;;5.65;89.01
70338;BME280;57757;53.198;19.646;2023-12-20T05:12:14;99063.72;;;5.65;89.02
70338;BME280;57757;53.198;19.646;2023-12-20T05:14:41;99060.61;;;5.65;89.03
70338;BME280;57757;53.198;19.646;2023-12-20T05:17:07;99059.39;;;5.66;89.02
70338;BME280;57757;53.198;19.646;2023-12-20T05:19:33;99054.55;;;5.66;88.98
70338;BME280;57757;53.198;19.646;2023-12-20T05:22:01;99054.73;;;5.67;88.93
70338;BME280;57757;53.198;19.646;2023-12-20T05:24:28;99060.39;;;5.67;89.00
70338;BME280;57757;53.198;19.646;2023-12-20T05:26:54;99060.02;;;5.68;88.99
70338;BME280;57757;53.198;19.646;2023-12-20T05:29:21;99060.88;;;5.69;88.97
70338;BME280;57757;53.198;19.646;2023-12-20T05:31:47;99056.56;;;5.69;89.10
70338;BME280;57757;53.198;19.646;2023-12-20T05:34:13;99063.27;;;5.70;89.01
70338;BME280;57757;53.198;19.646;2023-12-20T05:36:39;99070.31;;;5.71;89.01
70338;BME280;57757;53.198;19.646;2023-12-20T05:39:05;99069.99;;;5.70;88.89
70338;BME280;57757;53.198;19.646;2023-12-20T05:41:33;99076.38;;;5.70;88.97
70338;BME280;57757;53.198;19.646;2023-12-20T05:43:59;99071.39;;;5.69;88.94
70338;BME280;57757;53.198;19.646;2023-12-20T05:46:26;99066.38;;;5.70;88.96
70338;BME280;57757;53.198;19.646;2023-12-20T05:48:52;99074.31;;;5.70;88.96
70338;BME280;57757;53.198;19.646;2023-12-20T05:51:19;99073.28;;;5.69;88.73
70338;BME280;57757;53.198;19.646;2023-12-20T05:53:45;99063.10;;;5.70;89.01
70338;BME280;57757;53.198;19.646;2023-12-20T05:56:11;99064.64;;;5.71;89.06
70338;BME280;57757;53.198;19.646;2023-12-20T05:58:38;99063.96;;;5.70;88.79
70338;BME280;57757;53.198;19.646;2023-12-20T06:01:05;99064.84;;;5.69;88.73
70338;BME280;57757;53.198;19.646;2023-12-20T06:03:31;99066.95;;;5.67;88.68
70338;BME280;57757;53.198;19.646;2023-12-20T06:05:57;99067.17;;;5.65;88.66
70338;BME280;57757;53.198;19.646;2023-12-20T06:08:39;99063.63;;;5.61;88.46
70338;BME280;57757;53.198;19.646;2023-12-20T06:11:05;99058.51;;;5.59;88.40
70338;BME280;57757;53.198;19.646;2023-12-20T06:13:31;99054.96;;;5.55;88.45
70338;BME280;57757;53.198;19.646;2023-12-20T06:15:57;99051.72;;;5.53;88.50
70338;BME280;57757;53.198;19.646;2023-12-20T06:18:23;99052.97;;;5.52;88.59
70338;BME280;57757;53.198;19.646;2023-12-20T06:20:50;99054.37;;;5.51;88.55
70338;BME280;57757;53.198;19.646;2023-12-20T06:23:18;99055.56;;;5.52;88.62
70338;BME280;57757;53.198;19.646;2023-12-20T06:25:44;99055.90;;;5.52;88.63
70338;BME280;57757;53.198;19.646;2023-12-20T06:28:10;99055.54;;;5.52;88.57
70338;BME280;57757;53.198;19.646;2023-12-20T06:30:43;99057.13;;;5.51;88.52
70338;BME280;57757;53.198;19.646;2023-12-20T06:33:10;99060.41;;;5.51;88.59
70338;BME280;57757;53.198;19.646;2023-12-20T06:35:37;99053.35;;;5.50;88.43
70338;BME280;57757;53.198;19.646;2023-12-20T06:38:03;99057.67;;;5.49;88.51
70338;BME280;57757;53.198;19.646;2023-12-20T06:40:32;99062.16;;;5.49;88.49
70338;BME280;57757;53.198;19.646;2023-12-20T06:42:59;99063.34;;;5.51;88.56
70338;BME280;57757;53.198;19.646;2023-12-20T06:45:38;99060.39;;;5.51;88.59
70338;BME280;57757;53.198;19.646;2023-12-20T06:48:05;99065.57;;;5.51;88.49
70338;BME280;57757;53.198;19.646;2023-12-20T06:50:31;99079.73;;;5.50;88.46
70338;BME280;57757;53.198;19.646;2023-12-20T06:52:57;99079.95;;;5.48;88.26
70338;BME280;57757;53.198;19.646;2023-12-20T06:55:23;99086.55;;;5.46;88.19
70338;BME280;57757;53.198;19.646;2023-12-20T06:57:50;99092.98;;;5.44;88.36
70338;BME280;57757;53.198;19.646;2023-12-20T07:00:17;99087.30;;;5.42;88.15
70338;BME280;57757;53.198;19.646;2023-12-20T07:02:45;99081.66;;;5.40;88.20
70338;BME280;57757;53.198;19.646;2023-12-20T07:05:16;99083.08;;;5.38;88.13
70338;BME280;57757;53.198;19.646;2023-12-20T07:07:43;99087.10;;;5.35;88.17
70338;BME280;57757;53.198;19.646;2023-12-20T07:10:10;99090.74;;;5.34;88.24
70338;BME280;57757;53.198;19.646;2023-12-20T07:12:36;99087.81;;;5.34;88.27
70338;BME280;57757;53.198;19.646;2023-12-20T07:15:03;99089.20;;;5.34;88.26
70338;BME280;57757;53.198;19.646;2023-12-20T07:17:32;99087.98;;;5.34;88.33
70338;BME280;57757;53.198;19.646;2023-12-20T07:19:59;99086.59;;;5.35;88.30
70338;BME280;57757;53.198;19.646;2023-12-20T07:22:30;99089.36;;;5.34;88.27
70338;BME280;57757;53.198;19.646;2023-12-20T07:25:00;99087.34;;;5.32;88.18
70338;BME280;57757;53.198;19.646;2023-12-20T07:27:27;99087.06;;;5.28;87.98
70338;BME280;57757;53.198;19.646;2023-12-20T07:29:53;99087.17;;;5.23;87.89
70338;BME280;57757;53.198;19.646;2023-12-20T07:32:19;99086.06;;;5.18;87.84
70338;BME280;57757;53.198;19.646;2023-12-20T07:34:45;99083.02;;;5.14;87.78
70338;BME280;57757;53.198;19.646;2023-12-20T07:37:12;99085.15;;;5.11;87.82
70338;BME280;57757;53.198;19.646;2023-12-20T07:39:39;99080.56;;;5.08;87.81
70338;BME280;57757;53.198;19.646;2023-12-20T07:42:09;99076.45;;;5.07;87.89
70338;BME280;57757;53.198;19.646;2023-12-20T07:44:35;99070.13;;;5.04;87.90
70338;BME280;57757;53.198;19.646;2023-12-20T07:47:08;99067.23;;;5.02;87.93
70338;BME280;57757;53.198;19.646;2023-12-20T07:49:42;99065.39;;;4.99;87.82
70338;BME280;57757;53.198;19.646;2023-12-20T07:52:08;99065.77;;;4.97;87.96
70338;BME280;57757;53.198;19.646;2023-12-20T07:54:35;99066.66;;;4.96;87.90
70338;BME280;57757;53.198;19.646;2023-12-20T07:57:01;99071.17;;;4.94;87.90
70338;BME280;57757;53.198;19.646;2023-12-20T07:59:28;99074.13;;;4.93;87.89
70338;BME280;57757;53.198;19.646;2023-12-20T08:01:59;99081.54;;;4.92;87.91
70338;BME280;57757;53.198;19.646;2023-12-20T08:04:26;99072.46;;;4.90;87.84
70338;BME280;57757;53.198;19.646;2023-12-20T08:06:52;99073.33;;;4.90;87.92
70338;BME280;57757;53.198;19.646;2023-12-20T08:09:19;99072.30;;;4.89;87.89
70338;BME280;57757;53.198;19.646;2023-12-20T08:11:47;99076.61;;;4.89;87.88
70338;BME280;57757;53.198;19.646;2023-12-20T08:14:14;99078.67;;;4.89;87.80
70338;BME280;57757;53.198;19.646;2023-12-20T08:16:40;99072.31;;;4.88;87.76
70338;BME280;57757;53.198;19.646;2023-12-20T08:19:07;99068.70;;;4.89;87.83
70338;BME280;57757;53.198;19.646;2023-12-20T08:21:34;99074.73;;;4.88;87.84
70338;BME280;57757;53.198;19.646;2023-12-20T08:24:04;99070.44;;;4.87;87.80
70338;BME280;57757;53.198;19.646;2023-12-20T08:26:31;99069.06;;;4.87;87.80
70338;BME280;57757;53.198;19.646;2023-12-20T08:28:58;99068.91;;;4.86;87.79
70338;BME280;57757;53.198;19.646;2023-12-20T08:31:28;99069.30;;;4.83;87.67
70338;BME280;57757;53.198;19.646;2023-12-20T08:33:55;99073.16;;;4.79;87.66
70338;BME280;57757;53.198;19.646;2023-12-20T08:36:21;99068.38;;;4.77;87.67
70338;BME280;57757;53.198;19.646;2023-12-20T08:38:50;99064.48;;;4.74;87.69
70338;BME280;57757;53.198;19.646;2023-12-20T08:41:19;99062.62;;;4.72;87.66
70338;BME280;57757;53.198;19.646;2023-12-20T08:43:50;99062.86;;;4.68;87.53
70338;BME280;57757;53.198;19.646;2023-12-20T08:46:17;99070.31;;;4.66;87.43
70338;BME280;57757;53.198;19.646;2023-12-20T08:48:43;99069.30;;;4.64;87.42
70338;BME280;57757;53.198;19.646;2023-12-20T08:51:10;99072.95;;;4.62;87.38
70338;BME280;57757;53.198;19.646;2023-12-20T08:53:36;99074.20;;;4.60;87.23
70338;BME280;57757;53.198;19.646;2023-12-20T08:56:02;99071.66;;;4.56;87.28
70338;BME280;57757;53.198;19.646;2023-12-20T08:58:29;99068.55;;;4.57;87.28
70338;BME280;57757;53.198;19.646;2023-12-20T09:00:55;99074.08;;;4.56;87.22
70338;BME280;57757;53.198;19.646;2023-12-20T09:03:21;99072.59;;;4.54;87.02
70338;BME280;57757;53.198;19.646;2023-12-20T09:05:48;99076.58;;;4.52;87.06
70338;BME280;57757;53.198;19.646;2023-12-20T09:08:14;99075.02;;;4.52;87.23
70338;BME280;57757;53.198;19.646;2023-12-20T09:10:55;99077.44;;;4.52;87.13
70338;BME280;57757;53.198;19.646;2023-12-20T09:13:22;99076.77;;;4.50;86.99
70338;BME280;57757;53.198;19.646;2023-12-20T09:15:57;99077.30;;;4.49;87.11
70338;BME280;57757;53.198;19.646;2023-12-20T09:18:29;99078.83;;;4.50;87.14
70338;BME280;57757;53.198;19.646;2023-12-20T09:20:55;99070.71;;;4.53;87.35
70338;BME280;57757;53.198;19.646;2023-12-20T09:23:22;99063.22;;;4.58;87.33
70338;BME280;57757;53.198;19.646;2023-12-20T09:25:51;99065.39;;;4.62;87.27
70338;BME280;57757;53.198;19.646;2023-12-20T09:28:21;99067.55;;;4.65;87.25
70338;BME280;57757;53.198;19.646;2023-12-20T09:30:48;99066.47;;;4.68;87.29
70338;BME280;57757;53.198;19.646;2023-12-20T09:33:18;99059.02;;;4.71;87.37
70338;BME280;57757;53.198;19.646;2023-12-20T09:35:45;99052.23;;;4.75;87.39
70338;BME280;57757;53.198;19.646;2023-12-20T09:38:12;99050.29;;;4.78;87.23
70338;BME280;57757;53.198;19.646;2023-12-20T09:40:41;99046.59;;;4.83;87.36
70338;BME280;57757;53.198;19.646;2023-12-20T09:43:11;99042.43;;;4.93;87.56
70338;BME280;57757;53.198;19.646;2023-12-20T09:45:47;99041.68;;;5.05;87.53
70338;BME280;57757;53.198;19.646;2023-12-20T09:48:17;99044.92;;;5.15;87.67
70338;BME280;57757;53.198;19.646;2023-12-20T09:50:46;99036.30;;;5.24;87.48
70338;BME280;57757;53.198;19.646;2023-12-20T09:53:19;99034.50;;;5.28;87.24
70338;BME280;57757;53.198;19.646;2023-12-20T09:55:49;99027.61;;;5.28;87.05
70338;BME280;57757;53.198;19.646;2023-12-20T09:58:16;99026.69;;;5.30;87.06
70338;BME280;57757;53.198;19.646;2023-12-20T10:00:42;99026.62;;;5.34;87.18
70338;BME280;57757;53.198;19.646;2023-12-20T10:03:09;99029.31;;;5.37;87.19
70338;BME280;57757;53.198;19.646;2023-12-20T10:05:37;99017.23;;;5.37;87.04
70338;BME280;57757;53.198;19.646;2023-12-20T10:08:06;99010.40;;;5.35;86.87
70338;BME280;57757;53.198;19.646;2023-12-20T10:10:33;99009.42;;;5.32;86.80
70338;BME280;57757;53.198;19.646;2023-12-20T10:13:12;99002.92;;;5.29;86.88
70338;BME280;57757;53.198;19.646;2023-12-20T10:15:39;99001.92;;;5.28;87.00
70338;BME280;57757;53.198;19.646;2023-12-20T10:18:07;99002.27;;;5.27;86.89
70338;BME280;57757;53.198;19.646;2023-12-20T10:20:34;99002.14;;;5.25;86.77
70338;BME280;57757;53.198;19.646;2023-12-20T10:23:01;99000.13;;;5.22;86.81
70338;BME280;57757;53.198;19.646;2023-12-20T10:25:28;99004.75;;;5.16;86.56
70338;BME280;57757;53.198;19.646;2023-12-20T10:28:12;99009.05;;;5.08;86.44
70338;BME280;57757;53.198;19.646;2023-12-20T10:30:40;99004.25;;;4.98;86.52
70338;BME280;57757;53.198;19.646;2023-12-20T10:33:07;99007.13;;;4.92;86.49
70338;BME280;57757;53.198;19.646;2023-12-20T10:35:35;99002.24;;;4.86;86.64
70338;BME280;57757;53.198;19.646;2023-12-20T10:38:04;98999.73;;;4.82;86.64
70338;BME280;57757;53.198;19.646;2023-12-20T10:40:37;99006.00;;;4.79;86.60
70338;BME280;57757;53.198;19.646;2023-12-20T10:43:04;99013.20;;;4.81;86.72
70338;BME280;57757;53.198;19.646;2023-12-20T10:45:31;99014.57;;;4.81;86.76
70338;BME280;57757;53.198;19.646;2023-12-20T10:48:04;99008.00;;;4.82;86.85
70338;BME280;57757;53.198;19.646;2023-12-20T10:50:31;99003.66;;;4.84;86.76
70338;BME280;57757;53.198;19.646;2023-12-20T10:52:59;99010.71;;;4.85;86.66
70338;BME280;57757;53.198;19.646;2023-12-20T10:55:27;99004.52;;;4.85;86.62
70338;BME280;57757;53.198;19.646;2023-12-20T10:58:16;98998.84;;;4.84;86.59
70338;BME280;57757;53.198;19.646;2023-12-20T11:00:47;98989.88;;;4.84;86.67
70338;BME280;57757;53.198;19.646;2023-12-20T11:03:17;98987.77;;;4.87;86.77
70338;BME280;57757;53.198;19.646;2023-12-20T11:05:50;98982.55;;;4.88;86.68
70338;BME280;57757;53.198;19.646;2023-12-20T11:08:28;98979.29;;;4.89;86.68
70338;BME280;57757;53.198;19.646;2023-12-20T11:14:02;98978.59;;;4.89;86.43
70338;BME280;57757;53.198;19.646;2023-12-20T11:16:32;98980.50;;;4.88;86.41
70338;BME280;57757;53.198;19.646;2023-12-20T11:19:14;98975.58;;;4.85;86.44
70338;BME280;57757;53.198;19.646;2023-12-20T11:21:42;98974.71;;;4.85;86.41
70338;BME280;57757;53.198;19.646;2023-12-20T11:24:09;98962.66;;;4.84;86.39
70338;BME280;57757;53.198;19.646;2023-12-20T11:26:36;98964.55;;;4.85;86.38
70338;BME280;57757;53.198;19.646;2023-12-20T11:34:56;98967.76;;;4.87;86.18
70338;BME280;57757;53.198;19.646;2023-12-20T11:37:32;98963.98;;;4.87;86.02
70338;BME280;57757;53.198;19.646;2023-12-20T11:40:06;98949.38;;;4.86;85.83
70338;BME280;57757;53.198;19.646;2023-12-20T11:42:48;98942.27;;;4.88;85.69
70338;BME280;57757;53.198;19.646;2023-12-20T11:45:19;98937.25;;;4.89;85.40
70338;BME280;57757;53.198;19.646;2023-12-20T11:47:48;98935.18;;;4.89;85.39
70338;BME280;57757;53.198;19.646;2023-12-20T11:50:23;98925.02;;;4.89;85.42
70338;BME280;57757;53.198;19.646;2023-12-20T11:52:52;98916.06;;;4.89;85.59
70338;BME280;57757;53.198;19.646;2023-12-20T11:55:19;98912.58;;;4.90;85.63
70338;BME280;57757;53.198;19.646;2023-12-20T11:57:45;98917.72;;;4.92;85.41
70338;BME280;57757;53.198;19.646;2023-12-20T12:00:13;98905.02;;;4.90;85.20
70338;BME280;57757;53.198;19.646;2023-12-20T12:02:40;98897.63;;;4.89;85.22
70338;BME280;57757;53.198;19.646;2023-12-20T12:05:07;98883.86;;;4.87;85.39
70338;BME280;57757;53.198;19.646;2023-12-20T12:07:34;98883.53;;;4.87;85.24
70338;BME280;57757;53.198;19.646;2023-12-20T12:10:01;98878.74;;;4.86;85.35
70338;BME280;57757;53.198;19.646;2023-12-20T12:12:28;98874.95;;;4.86;85.46
70338;BME280;57757;53.198;19.646;2023-12-20T12:14:56;98868.24;;;4.86;85.32
70338;BME280;57757;53.198;19.646;2023-12-20T12:17:23;98863.56;;;4.87;85.59
70338;BME280;57757;53.198;19.646;2023-12-20T12:19:49;98856.13;;;4.88;85.61
70338;BME280;57757;53.198;19.646;2023-12-20T12:22:16;98860.25;;;4.89;85.28
70338;BME280;57757;53.198;19.646;2023-12-20T12:24:46;98845.46;;;4.87;85.43
70338;BME280;57757;53.198;19.646;2023-12-20T12:27:14;98841.84;;;4.88;85.38
70338;BME280;57757;53.198;19.646;2023-12-20T12:29:40;98838.02;;;4.89;85.53
70338;BME280;57757;53.198;19.646;2023-12-20T12:32:08;98831.61;;;4.91;85.43
70338;BME280;57757;53.198;19.646;2023-12-20T12:34:35;98834.72;;;4.90;85.33
70338;BME280;57757;53.198;19.646;2023-12-20T12:37:04;98830.77;;;4.90;85.37
70338;BME280;57757;53.198;19.646;2023-12-20T12:39:30;98825.61;;;4.90;85.44
70338;BME280;57757;53.198;19.646;2023-12-20T12:41:57;98825.29;;;4.89;85.45
70338;BME280;57757;53.198;19.646;2023-12-20T12:44:24;98817.88;;;4.89;85.53
70338;BME280;57757;53.198;19.646;2023-12-20T12:46:51;98814.15;;;4.86;85.38
70338;BME280;57757;53.198;19.646;2023-12-20T12:49:20;98812.47;;;4.84;85.45
70338;BME280;57757;53.198;19.646;2023-12-20T12:51:47;98809.44;;;4.81;85.48
70338;BME280;57757;53.198;19.646;2023-12-20T12:54:14;98810.89;;;4.78;85.51
70338;BME280;57757;53.198;19.646;2023-12-20T12:56:43;98805.11;;;4.75;85.43
70338;BME280;57757;53.198;19.646;2023-12-20T12:59:09;98805.64;;;4.74;85.52
70338;BME280;57757;53.198;19.646;2023-12-20T13:01:35;98796.54;;;4.72;85.64
70338;BME280;57757;53.198;19.646;2023-12-20T13:04:02;98792.63;;;4.71;85.68
70338;BME280;57757;53.198;19.646;2023-12-20T13:06:30;98786.61;;;4.70;85.67
70338;BME280;57757;53.198;19.646;2023-12-20T13:08:56;98784.61;;;4.67;85.63
70338;BME280;57757;53.198;19.646;2023-12-20T13:11:22;98775.83;;;4.67;85.86